METAR ET TAF INFORMATION
METAR FOR FKKN
ADDS - METARS form results

(0727 UTC 06 February 2023)
Data provider http://aviationweather.gov/metar/data/
 
METAR text: FKKN 060700Z 09004KT CAVOK 21/02 Q1018
Conditions at: FKKN (NGAOUNDERE , CM) observed 0700 UTC 06 February 2023
Temperature: 21.0°C (70°F)
Dewpoint: 2.0°C (36°F) [RH = 28%]
Pressure (altimeter): 30.06 inches Hg (1018.0 mb)
Winds: from the E (90 degrees) at 5 MPH (4 knots; 2.1 m/s)
Visibility: 6 or more miles (10+ km)
Ceiling: ceiling and visibility are OK
Clouds: unknown
Weather: no significant weather observed at this time

 AÉROPORT DE AÉROPORT

 INFORMATIONS DE PISTE
Piste 02 Longueur de la piste 8858 ft Largeur de la piste 148 ft
Élévation de la piste 3649 ft Seuil de la piste déplacés 492 ft Runway heading 22
Piste 20 Longueur de la piste 8858 ft Largeur de la piste 148 ft
Élévation de la piste 3609 ft Seuil de la piste déplacés 131 ft Runway heading 202

 AÉROPORT FRÉQUENCES
Type TWR Nom TWR Féquence 118.1 MHZ

 SIDA DE NAVIGATION
Type VOR Nom Ngaoundere Féquence 112700 KHZ
Type NDB Nom Ngaoundere Féquence 295 KHZ



Powered by Virtual Airlines Manager [v2.6.2]